Delphi Falls, New York
Current Conditions -  °F | °C
As of 10:54 PM on Thursday 18 Dec 2014 (Local Time) from KSYR Reporting Station
Light Snow Light Snow  
Wind Chill: 20°   Ceiling: 1600
Heat Index: 30°   Visibility: 10mi
Dew Point: 28°   Wind: 13mph
Humidity: 92%   Direction: 290°WNW
Pressure: 30.01"   Gusts: NA
Location:  42.88°N, 75.91°W
Report Text: KSYR 190354Z 29011KT 10SM -SN OVC016 M01/M02 A3001 RMK AO2 SNB50 SLP163 P0000 T10111022
Loading
Personal Weather Stations






























Interactive Weather Map New forecast layout! Learn more

10-Day Weather Forecast

Advertisements
Track Severe Weather on mobile